Flight Track Log - Related Links

Times and Time Zones

All times are in EDT time to prevent confusion due to time zone crossing. See the UAL1177 flight status page for this flight to view local times or setup timezone preferences in your user account.

Time Position Orientation Groundspeed Altitude Reporting Facility
EDT Latitude Longitude Course Direction KTS MPH feet Rate Location/Type
Tue 04:57:48 PM 40.5047 -80.3236 286° West 213 245 2,900  Level Cleveland Center
Tue 04:58:48 PM 40.5214 -80.4136 284° West 269 310 5,000 2,800 Climbing Cleveland Center
Tue 04:59:00 PM 40.5665 -80.6434 287° West  Level FlightAware Approximate
Tue 04:59:48 PM 40.5403 -80.5039 285° West 269 310 8,500  Level Cleveland Center
Tue 05:00:00 PM 40.6001 -80.7837 288° West  Level FlightAware Approximate
Tue 05:00:48 PM 40.5611 -80.6022 286° West 269 310 10,600  Level Cleveland Center
Tue 05:01:00 PM 40.6316 -80.9248 285° West  Level FlightAware Approximate
Tue 05:01:48 PM 40.5883 -80.7144 288° West 292 336 12,700  Level Cleveland Center
Tue 05:02:00 PM 40.6540 -81.0680 286° West  Level FlightAware Approximate
Tue 05:02:48 PM 40.6131 -80.8347 285° West 319 367 15,500  Level Cleveland Center
Tue 05:03:00 PM 40.6855 -81.2093 286° West  Level FlightAware Approximate
Tue 05:03:48 PM 40.6419 -80.9581 287° West 341 392 17,500  Level Cleveland Center
Tue 05:04:48 PM 40.6644 -81.0786 284° West 366 421 19,600 2,000 Climbing Cleveland Center
Tue 05:05:48 PM 40.6928 -81.2131 286° West 375 432 21,500 1,800 Climbing Cleveland Center
Tue 05:06:48 PM 40.7253 -81.3667 286° West 382 440 23,200 1,650 Climbing Cleveland Center
Tue 05:07:48 PM 40.7639 -81.5097 290° West 400 460 24,800 1,550 Climbing Cleveland Center
Tue 05:08:48 PM 40.8106 -81.6503 294° West 412 474 26,300 1,500 Climbing Cleveland Center
Tue 05:09:48 PM 40.8569 -81.7964 293° West 426 490 27,800 1,400 Climbing Cleveland Center
Tue 05:10:48 PM 40.9033 -81.9458 292° West 431 496 29,100 1,350 Climbing Cleveland Center
Tue 05:11:48 PM 40.9514 -82.0925 293° West 438 504 30,500 1,200 Climbing Cleveland Center
Tue 05:12:48 PM 40.9933 -82.2283 292° West 438 504 31,500 1,150 Climbing Cleveland Center
Tue 05:13:48 PM 41.0264 -82.3803 286° West 443 510 32,800 1,200 Climbing Cleveland Center
Tue 05:14:48 PM 41.0531 -82.5381 283° West 431 496 33,900 1,150 Climbing Cleveland Center
Tue 05:15:48 PM 41.0711 -82.6956 279° West 431 496 35,100 1,050 Climbing Cleveland Center
Tue 05:16:48 PM 41.0869 -82.8503 278° West 431 496 36,000 450 Climbing Cleveland Center
Tue 05:17:48 PM 41.1064 -83.0164 279° West 425 489 36,000  Level Cleveland Center
Tue 05:18:48 PM 41.1217 -83.1714 278° West 425 489 36,000  Level Cleveland Center
Tue 05:19:48 PM 41.1353 -83.3069 278° West 420 483 36,000  Level Cleveland Center
Tue 05:20:48 PM 41.1525 -83.4594 279° West 420 483 36,000  Level Cleveland Center
Tue 05:21:48 PM 41.1653 -83.6117 276° West 426 490 36,000  Level Cleveland Center
Tue 05:22:48 PM 41.1819 -83.7617 278° West 426 490 36,000  Level Cleveland Center
Tue 05:23:48 PM 41.2006 -83.9089 280° West 426 490 36,000  Level Cleveland Center
Tue 05:24:23 PM 41.2069 -83.9886 276° West 407 468 36,000  Level Chicago Center
Tue 05:25:25 PM 41.2253 -84.1686 278° West 410 472 36,000  Level Chicago Center
Tue 05:26:27 PM 41.2386 -84.3211 277° West 415 478 36,000  Level Chicago Center
Tue 05:27:30 PM 41.2542 -84.4761 278° West 421 484 36,000  Level Chicago Center
Tue 05:28:32 PM 41.2678 -84.6300 277° West 421 484 36,000  Level Chicago Center
Tue 05:29:34 PM 41.2817 -84.7842 277° West 421 484 36,000  Level Chicago Center
Tue 05:30:36 PM 41.2958 -84.9386 277° West 420 483 36,000  Level Chicago Center
Tue 05:31:38 PM 41.3092 -85.0914 277° West 416 479 36,000  Level Chicago Center
Tue 05:32:40 PM 41.3244 -85.2731 276° West 411 473 36,000 -484 Level Chicago Center
Tue 05:33:42 PM 41.3369 -85.4244 276° West 409 471 35,000 -484 Descending Chicago Center
Tue 05:34:44 PM 41.3500 -85.5756 277° West 408 470 35,000 -677 Level Chicago Center
Tue 05:35:46 PM 41.3553 -85.7236 273° West 399 459 33,600 -1,452 Descending Chicago Center
Tue 05:36:48 PM 41.3528 -85.8692 269° West 392 451 32,000 -774 Descending Chicago Center
Tue 05:37:50 PM 41.3611 -86.0147 274° West 390 449 32,000  Level Chicago Center
Tue 05:38:53 PM 41.3611 -86.1594 270° West 389 448 32,000  Level Chicago Center
Tue 05:39:55 PM 41.3622 -86.3325 271° West 389 448 32,000  Level Chicago Center
Tue 05:40:57 PM 41.3625 -86.4767 270° West 390 449 32,000  Level Chicago Center
Tue 05:41:59 PM 41.3631 -86.6200 270° West 388 447 32,000  Level Chicago Center
Tue 05:43:01 PM 41.3631 -86.7811 270° West 389 448 32,000  Level Chicago Center
Tue 05:44:03 PM 41.3614 -86.9264 269° West 393 452 32,000  Level Chicago Center
Tue 05:45:05 PM 41.3631 -87.0714 271° West 393 452 32,000  Level Chicago Center
Tue 05:46:07 PM 41.3614 -87.2167 269° West 393 452 32,000  Level Chicago Center
Tue 05:47:09 PM 41.3603 -87.3608 269° West 392 451 32,000  Level Chicago Center
Tue 05:48:11 PM 41.3608 -87.5342 270° West 392 451 32,000  Level Chicago Center
Tue 05:49:13 PM 41.3597 -87.6778 269° West 391 450 32,000  Level Chicago Center
Tue 05:50:16 PM 41.3581 -87.8233 269° West 393 452 32,000  Level Chicago Center
Tue 05:51:18 PM 41.3567 -87.9694 269° West 393 452 32,000  Level Chicago Center
Tue 05:52:20 PM 41.3564 -88.1156 270° West 398 458 32,000  Level Chicago Center
Tue 05:53:22 PM 41.3522 -88.2700 268° West 393 452 32,000  Level Chicago Center
Tue 05:54:24 PM 41.3503 -88.4139 269° West 391 450 32,000  Level Chicago Center
Tue 05:55:26 PM 41.3483 -88.5567 269° West 388 447 32,000  Level Chicago Center
Tue 05:56:28 PM 41.3456 -88.7300 269° West 392 451 32,000  Level Chicago Center
Tue 05:57:30 PM 41.3419 -88.8728 268° West 389 448 32,000  Level Chicago Center
Tue 05:58:32 PM 41.3397 -89.0167 269° West 391 450 32,000  Level Chicago Center
Tue 05:59:34 PM 41.3369 -89.1606 269° West 392 451 32,000  Level Chicago Center
Tue 06:01:00 PM 41.3136 -89.3714 269° West  Level FlightAware Approximate
Tue 06:01:39 PM 41.3317 -89.4661 269° West 386 444 32,000  Level Chicago Center
Tue 06:02:41 PM 41.3272 -89.6064 268° West 383 441 32,000  Level Chicago Center
Tue 06:03:43 PM 41.3242 -89.7469 268° West 383 441 32,000  Level Chicago Center
Tue 06:04:45 PM 41.3211 -89.8847 268° West 378 435 32,000  Level Chicago Center
Tue 06:05:47 PM 41.3161 -90.0511 268° West 377 434 32,000  Level Chicago Center
Tue 06:06:49 PM 41.3119 -90.1897 268° West 378 435 32,000  Level Chicago Center
Tue 06:07:51 PM 41.3072 -90.3306 267° West 383 441 32,000  Level Chicago Center
Tue 06:08:53 PM 41.3033 -90.4694 268° West 380 437 32,000  Level Chicago Center
Tue 06:09:55 PM 41.2994 -90.6078 268° West 378 435 32,000  Level Chicago Center
Tue 06:10:59 PM 41.2914 -90.7792 266° West 385 443 32,000  Level Chicago Center
Tue 06:11:59 PM 41.2869 -90.9175 268° West 377 434 32,000  Level Chicago Center
Tue 06:13:02 PM 41.2817 -91.0556 267° West 376 433 32,000  Level Chicago Center
Tue 06:14:04 PM 41.2758 -91.1928 267° West 373 429 32,000  Level Chicago Center
Tue 06:15:06 PM 41.2708 -91.3350 267° West 373 429 32,000  Level Chicago Center
Tue 06:16:08 PM 41.2650 -91.4706 267° West 371 427 32,000  Level Chicago Center
Tue 06:17:10 PM 41.2589 -91.6078 267° West 374 430 32,000  Level Chicago Center
Tue 06:18:12 PM 41.2519 -91.7739 267° West 378 435 32,000 726 Level Chicago Center
Tue 06:19:14 PM 41.2456 -91.9131 267° West 380 437 33,500 1,403 Climbing Chicago Center
Tue 06:20:16 PM 41.2389 -92.0494 266° West 374 430 34,900 1,306 Climbing Chicago Center
Tue 06:21:18 PM 41.2317 -92.1925 266° West 366 421 36,200 1,113 Climbing Chicago Center
Tue 06:22:20 PM 41.2261 -92.3206 267° West 357 411 37,200 677 Climbing Chicago Center
Tue 06:23:22 PM 41.2189 -92.4503 266° West 356 410 37,600 384 Climbing Chicago Center
Tue 06:24:25 PM 41.2131 -92.5844 267° West 365 420 38,000 192 Climbing Chicago Center
Tue 06:25:27 PM 41.2042 -92.7483 266° West 375 432 38,000  Level Chicago Center
Tue 06:26:29 PM 41.1967 -92.8853 266° West 377 434 38,000  Level Chicago Center
Tue 06:27:23 PM 41.1897 -93.0239 266° West 378 435 38,000  Level Minneapolis Center
Tue 06:28:25 PM 41.1822 -93.1625 266° West 381 438 38,000  Level Minneapolis Center
Tue 06:29:27 PM 41.1739 -93.3000 265° West 379 436 38,000  Level Minneapolis Center
Tue 06:30:29 PM 41.1653 -93.4392 265° West 382 440 38,000  Level Minneapolis Center
Tue 06:31:32 PM 41.1583 -93.5731 266° West 373 429 38,000  Level Minneapolis Center
Tue 06:32:34 PM 41.1494 -93.7383 266° West 376 433 38,000 -339 Level Minneapolis Center
Tue 06:33:36 PM 41.1422 -93.8756 266° West 377 434 37,300 -774 Descending Minneapolis Center
Tue 06:34:38 PM 41.1314 -94.0117 264° West 376 433 36,400 -919 Descending Minneapolis Center
Tue 06:35:40 PM 41.1225 -94.1456 265° West 372 428 35,400 -1,065 Descending Minneapolis Center
Tue 06:36:42 PM 41.1150 -94.2772 266° West 365 420 34,200 -1,645 Descending Minneapolis Center
Tue 06:37:44 PM 41.1036 -94.4361 265° West 364 419 32,000 -1,065 Descending Minneapolis Center
Tue 06:38:46 PM 41.0942 -94.5711 265° West 368 423 32,000  Level Minneapolis Center
Tue 06:39:48 PM 41.0856 -94.6981 265° West 368 423 32,000  Level Minneapolis Center
Tue 06:40:50 PM 41.0733 -94.8592 264° West 366 421 32,000  Level Minneapolis Center
Tue 06:41:52 PM 41.0642 -94.9950 265° West 368 423 32,000  Level Minneapolis Center
Tue 06:42:54 PM 41.0531 -95.1317 264° West 370 426 32,000  Level Minneapolis Center
Tue 06:43:56 PM 41.0433 -95.2675 265° West 371 427 32,000  Level Minneapolis Center
Tue 06:44:58 PM 41.0336 -95.4028 265° West 369 425 32,000  Level Minneapolis Center
Tue 06:46:01 PM 41.0225 -95.5422 264° West 375 432 32,000  Level Minneapolis Center
Tue 06:47:03 PM 41.0108 -95.6781 264° West 372 428 32,000  Level Minneapolis Center
Tue 06:48:05 PM 40.9981 -95.8414 264° West 370 426 32,000  Level Minneapolis Center
Tue 06:49:07 PM 40.9883 -95.9783 265° West 370 426 32,000  Level Minneapolis Center
Tue 06:50:21 PM 40.9744 -96.1389 264° West 365 420 32,000 -132 Level Minneapolis Center
Tue 06:51:23 PM 40.9631 -96.2739 264° West 366 421 31,700 -629 Descending Minneapolis Center
Tue 06:52:25 PM 40.9514 -96.4103 264° West 370 426 30,700 -968 Descending Minneapolis Center
Tue 06:53:27 PM 40.9028 -96.5286 242° Southwest 373 429 29,700 -960 Descending Minneapolis Center
Tue 06:54:30 PM 40.8411 -96.6397 234° Southwest 373 429 28,700 -1,056 Descending Minneapolis Center
Tue 06:55:32 PM 40.7669 -96.7756 234° Southwest 379 436 27,500 -976 Descending Minneapolis Center
Tue 06:56:33 PM 40.7583 -96.8897 264° West 390 449 26,700 -726 Descending Minneapolis Center
Tue 06:57:36 PM 40.7628 -97.0636 272° West 395 455 26,000 -336 Descending Minneapolis Center
Tue 06:58:38 PM 40.7658 -97.2092 272° West 396 456 26,000  Level Minneapolis Center
Tue 06:59:40 PM 40.7683 -97.3536 271° West 395 455 26,000  Level Minneapolis Center
Tue 07:00:45 PM 40.7722 -97.5228 272° West 399 459 26,000  Level Minneapolis Center
Tue 07:01:47 PM 40.7742 -97.6697 271° West 400 460 26,000 -387 Level Minneapolis Center
Tue 07:02:49 PM 40.7764 -97.8150 271° West 398 458 25,200 -919 Descending Minneapolis Center
Tue 07:03:51 PM 40.7783 -97.9586 271° West 393 452 24,100 -581 Descending Minneapolis Center
Tue 07:04:53 PM 40.7800 -98.0983 271° West 385 443 24,000 -48 Descending Minneapolis Center
Tue 07:05:55 PM 40.7831 -98.2667 271° West 382 440 24,000  Level Minneapolis Center
Tue 07:06:57 PM 40.7839 -98.4072 270° West 381 438 24,000  Level Minneapolis Center
Tue 07:07:59 PM 40.7864 -98.5525 271° West 384 442 24,000  Level Minneapolis Center
Tue 07:09:01 PM 40.7872 -98.6939 270° West 385 443 24,000  Level Minneapolis Center
Tue 07:10:03 PM 40.7881 -98.8358 270° West 386 444 24,000  Level Minneapolis Center
Tue 07:11:05 PM 40.7892 -98.9764 271° West 385 443 24,000  Level Minneapolis Center
Tue 07:12:07 PM 40.7903 -99.1211 271° West 387 445 24,000  Level Minneapolis Center
Tue 07:12:34 PM 40.7900 -99.1769 270° West 384 442 24,000  Level Denver Center
Tue 07:13:35 PM 40.7906 -99.3461 270° West 382 440 24,000  Level Denver Center
Tue 07:14:12 PM 40.7914 -99.4319 271° West 384 442 24,000  Level Minneapolis Center
Tue 07:15:26 PM 40.7917 -99.5731 270° West 384 442 24,000  Level Minneapolis Center
Tue 07:16:28 PM 40.7925 -99.7433 270° West 385 443 24,000  Level Minneapolis Center
Tue 07:17:30 PM 40.7908 -99.8844 269° West 384 442 24,000  Level Minneapolis Center
Tue 07:18:32 PM 40.7903 -100.0239 270° West 381 438 24,000  Level Minneapolis Center
Tue 07:19:34 PM 40.7906 -100.1650 270° West 382 440 24,000  Level Minneapolis Center
Tue 07:20:36 PM 40.7911 -100.3058 270° West 383 441 24,000  Level Minneapolis Center
Tue 07:21:38 PM 40.7897 -100.4714 269° West 380 437 24,000  Level Minneapolis Center
Tue 07:22:53 PM 40.7858 -100.6406 268° West 375 432 24,000  Level Denver Center
Tue 07:23:55 PM 40.7653 -100.7786 259° West 387 445 24,000  Level Denver Center
Tue 07:24:57 PM 40.7447 -100.9122 259° West 385 443 24,000  Level Denver Center
Tue 07:25:59 PM 40.7194 -101.0658 258° West 383 441 24,000  Level Denver Center
Tue 07:27:01 PM 40.6964 -101.1983 257° West 386 444 24,000  Level Denver Center
Tue 07:28:03 PM 40.6697 -101.3528 257° West 387 445 24,000  Level Denver Center
Tue 07:29:05 PM 40.6442 -101.4942 257° West 409 471 24,000  Level Denver Center
Tue 07:30:07 PM 40.6194 -101.6358 257° West 414 476 24,000  Level Denver Center
Tue 07:31:09 PM 40.5883 -101.8006 256° West 417 480 24,000  Level Denver Center
Tue 07:32:10 PM 40.5631 -101.9422 257° West 415 478 24,000  Level Denver Center
Tue 07:33:12 PM 40.5319 -102.1081 256° West 418 481 24,000  Level Denver Center
Tue 07:34:14 PM 40.5058 -102.2503 256° West 417 480 24,000  Level Denver Center
Tue 07:35:16 PM 40.4750 -102.4156 256° West 416 479 24,000  Level Denver Center
Tue 07:36:18 PM 40.4494 -102.5569 257° West 417 480 24,000  Level Denver Center
Tue 07:37:20 PM 40.4181 -102.7222 256° West 418 481 24,000  Level Denver Center
Tue 07:38:22 PM 40.3917 -102.8631 256° West 417 480 24,000  Level Denver Center
Tue 07:39:24 PM 40.3608 -103.0269 256° West 416 479 24,000  Level Denver Center
Tue 07:40:26 PM 40.3336 -103.1686 256° West 418 481 24,000  Level Denver Center
Tue 07:41:28 PM 40.3022 -103.3314 256° West 417 480 24,000  Level Denver Center
Tue 07:42:30 PM 40.2758 -103.4642 255° West 413 475 24,000 -242 Level Denver Center
Tue 07:43:32 PM 40.2442 -103.6269 256° West 412 474 23,500 -871 Descending Denver Center
Tue 07:44:34 PM 40.2169 -103.7675 256° West 413 475 22,200 -1,258 Descending Denver Center
Tue 07:45:36 PM 40.1808 -103.8975 250° West 357 411 20,900 -1,403 Descending Denver Center
Tue 07:46:38 PM 40.1311 -104.0028 238° Southwest 340 391 19,300 -1,597 Descending Denver Center
Tue 07:47:40 PM 40.0800 -104.1131 239° Southwest 329 379 17,600 -1,536 Descending Denver Center
Tue 07:48:43 PM 40.0336 -104.2119 239° Southwest 322 371 16,100 -1,488 Descending Denver Center
Tue 07:49:45 PM 39.9856 -104.3156 239° Southwest 311 358 14,500 -1,452 Descending Denver Center
Tue 07:50:47 PM 39.9417 -104.4106 239° Southwest 306 352 13,100 -1,403 Descending Denver Center
Tue 07:51:49 PM 39.8908 -104.4931 231° Southwest 297 342 11,600 -1,016 Descending Denver Center
Tue 07:52:51 PM 39.8039 -104.5006 184° South 289 333 11,000 -581 Descending Denver Center
Tue 07:53:53 PM 39.7308 -104.5025 181° South 266 306 10,400 -968 Descending Denver Center
Tue 07:54:55 PM 39.6583 -104.5161 188° South 251 289 9,000 -1,161 Descending Denver Center
Tue 07:55:57 PM 39.6600 -104.5922 272° West 226 260 8,000 -968 Descending Denver Center

Login

Don't have an account? Register now (free) for customized features, flight alerts, and more!